Time;durP1;ratioP1;P1;durP2;ratioP2;P2;SDS_P1;SDS_P2;PMS_P1;PMS_P2;Temp;Humidity;BMP_temperature;BMP_pressure;BME280_temperature;BME280_humidity;BME280_pressure;Samples;Min_cycle;Max_cycle;Signal;HPM_P1;HPM_P2
2022/01/01 00:01:26;;;;;;;78.57;43.05;;;;;;;11.70;87.40;102202.81;10486114;28;20302;-87
2022/01/01 00:06:28;;;;;;;66.28;37.72;;;;;;;11.66;87.44;102200.91;10505220;28;20114;-88
2022/01/01 00:11:30;;;;;;;56.17;30.15;;;;;;;11.65;87.45;102204.34;10494300;28;20078;-89
2022/01/01 00:16:32;;;;;;;55.08;29.20;;;;;;;11.66;87.21;102198.31;10482498;28;20041;-89
2022/01/01 00:21:41;;;;;;;47.95;22.77;;;;;;;11.67;87.36;102206.97;10445535;28;20099;-87
2022/01/01 00:26:43;;;;;;;50.42;21.48;;;;;;;11.73;87.11;102210.69;10455940;28;20397;-88
2022/01/01 00:31:44;;;;;;;40.38;20.80;;;;;;;11.76;86.58;102217.69;10479264;28;20047;-86
2022/01/01 00:36:46;;;;;;;37.35;17.23;;;;;;;11.74;86.88;102222.78;10447882;28;20128;-89
2022/01/01 00:41:48;;;;;;;34.13;18.23;;;;;;;11.70;86.97;102220.00;10478198;28;20526;-88
2022/01/01 00:46:50;;;;;;;38.40;18.00;;;;;;;11.71;86.81;102220.06;10452163;28;20052;-86
2022/01/01 00:51:52;;;;;;;39.13;20.20;;;;;;;11.71;87.31;102235.56;10468036;28;20416;-89
2022/01/01 00:56:54;;;;;;;35.75;19.88;;;;;;;11.72;87.39;102237.34;10478652;28;20651;-86
2022/01/01 01:01:56;;;;;;;44.10;21.92;;;;;;;11.69;87.02;102242.34;10486208;28;20045;-87
2022/01/01 01:06:58;;;;;;;46.92;22.50;;;;;;;11.68;87.23;102245.75;10472478;28;20106;-88
2022/01/01 01:11:59;;;;;;;51.03;25.30;;;;;;;11.71;87.26;102240.72;10475520;28;20135;-87
2022/01/01 01:17:01;;;;;;;54.53;24.60;;;;;;;11.68;87.24;102235.41;10496801;28;20098;-87
2022/01/01 01:22:04;;;;;;;47.10;25.88;;;;;;;11.67;87.60;102230.22;10476330;28;20052;-90
2022/01/01 01:27:06;;;;;;;49.72;25.58;;;;;;;11.63;87.58;102242.09;10469277;28;20044;-89
2022/01/01 01:32:08;;;;;;;52.60;25.83;;;;;;;11.66;87.15;102236.19;10477997;28;20507;-87
2022/01/01 01:37:10;;;;;;;50.85;25.20;;;;;;;11.62;87.92;102240.31;10493654;28;20049;-86
2022/01/01 01:42:12;;;;;;;47.50;25.48;;;;;;;11.59;87.89;102243.66;10472524;28;20067;-88
2022/01/01 01:47:17;;;;;;;48.72;24.70;;;;;;;11.59;88.03;102240.19;10485893;28;20049;-87
2022/01/01 01:52:20;;;;;;;51.67;26.08;;;;;;;11.59;87.80;102243.66;10477701;28;20051;-87
2022/01/01 01:57:22;;;;;;;51.72;26.05;;;;;;;11.58;87.77;102248.75;10476202;28;20051;-86
2022/01/01 02:02:24;;;;;;;52.50;24.40;;;;;;;11.56;87.87;102250.41;10476216;28;20518;-86
2022/01/01 02:07:27;;;;;;;49.55;24.05;;;;;;;11.57;87.97;102258.19;10491165;28;20500;-89
2022/01/01 02:12:29;;;;;;;59.20;28.55;;;;;;;11.60;87.90;102260.03;10444281;28;20048;-87
2022/01/01 02:17:30;;;;;;;62.22;29.20;;;;;;;11.56;87.97;102256.44;10450511;28;20095;-87
2022/01/01 02:22:39;;;;;;;55.92;28.63;;;;;;;11.50;87.85;102251.00;10482973;28;20127;-89
2022/01/01 02:27:41;;;;;;;57.17;28.13;;;;;;;11.48;88.08;102246.59;10455111;28;20137;-87
2022/01/01 02:32:43;;;;;;;56.13;27.05;;;;;;;11.47;88.86;102268.06;10502259;28;20135;-88
2022/01/01 02:37:45;;;;;;;63.42;28.83;;;;;;;11.46;88.62;102268.84;10480303;28;20561;-89
2022/01/01 02:42:47;;;;;;;65.22;29.42;;;;;;;11.46;88.70;102268.84;10452328;28;20036;-89
2022/01/01 02:47:49;;;;;;;65.40;31.33;;;;;;;11.49;88.79;102269.00;10463179;28;20416;-88
2022/01/01 02:52:54;;;;;;;63.35;31.88;;;;;;;11.48;88.48;102262.06;10456234;28;20076;-89
2022/01/01 02:57:55;;;;;;;65.10;33.50;;;;;;;11.49;88.64;102271.59;10482189;28;20052;-85
2022/01/01 03:02:57;;;;;;;66.28;31.88;;;;;;;11.49;88.71;102264.72;10502093;28;20410;-88
2022/01/01 03:08:04;;;;;;;63.75;32.72;;;;;;;11.45;88.49;102272.25;10444767;28;20066;-85
2022/01/01 03:13:05;;;;;;;62.38;30.90;;;;;;;11.56;87.95;102271.03;10453534;28;20057;-87
2022/01/01 03:18:07;;;;;;;74.13;38.30;;;;;;;11.49;87.70;102264.72;10471701;28;20068;-85
2022/01/01 03:23:08;;;;;;;82.20;40.05;;;;;;;11.49;87.93;102269.00;10480807;28;20072;-83
2022/01/01 03:28:10;;;;;;;65.80;31.67;;;;;;;11.47;87.67;102255.16;10484438;28;20560;-88
2022/01/01 03:33:12;;;;;;;63.38;32.00;;;;;;;11.45;87.98;102239.59;10470571;28;20056;-84
2022/01/01 03:38:15;;;;;;;67.75;31.83;;;;;;;11.46;88.10;102232.72;10465487;28;20044;-86
2022/01/01 03:43:18;;;;;;;59.90;30.92;;;;;;;11.36;88.54;102231.44;10473404;28;20041;-85
2022/01/01 03:48:20;;;;;;;71.07;30.42;;;;;;;11.28;88.69;102228.56;10468387;28;20044;-90
2022/01/01 03:53:24;;;;;;;57.05;29.33;;;;;;;11.18;88.93;102241.84;10487631;28;20044;-90
2022/01/01 03:58:28;;;;;;;62.05;28.52;;;;;;;11.15;89.44;102242.59;10481269;28;20040;-91
2022/01/01 04:03:30;;;;;;;67.70;30.00;;;;;;;11.16;89.26;102246.94;10463359;28;20072;-88
2022/01/01 04:08:32;;;;;;;59.85;27.38;;;;;;;11.20;89.51;102245.38;10451216;28;20044;-90
2022/01/01 04:13:40;;;;;;;59.13;29.38;;;;;;;11.18;89.11;102228.94;10446330;28;20052;-88
2022/01/01 04:18:42;;;;;;;56.08;27.15;;;;;;;11.17;89.36;102228.03;10473750;28;20044;-87
2022/01/01 04:23:51;;;;;;;58.65;26.50;;;;;;;11.16;89.66;102240.88;10516278;28;20074;-88
2022/01/01 04:28:52;;;;;;;58.20;26.08;;;;;;;11.13;90.07;102251.94;10528288;28;20063;-86
2022/01/01 04:33:54;;;;;;;53.45;24.55;;;;;;;11.13;89.86;102253.66;10527908;28;20131;-86
2022/01/01 04:38:56;;;;;;;54.42;24.08;;;;;;;11.13;90.06;102259.69;10494194;28;20045;-86
2022/01/01 04:43:58;;;;;;;58.88;23.30;;;;;;;11.10;89.93;102260.44;10472744;28;20042;-86
2022/01/01 04:49:00;;;;;;;61.95;25.00;;;;;;;11.16;90.15;102265.00;10488086;28;20087;-87
2022/01/01 04:54:03;;;;;;;48.13;21.63;;;;;;;11.16;89.91;102269.25;10456705;28;20087;-86
2022/01/01 04:59:04;;;;;;;45.72;20.73;;;;;;;11.19;89.78;102269.41;10427665;28;20059;-86
2022/01/01 05:04:07;;;;;;;41.17;20.38;;;;;;;11.09;90.23;102258.66;10427052;28;20044;-85
2022/01/01 05:09:16;;;;;;;47.67;19.42;;;;;;;11.09;90.19;102268.97;10443045;28;20135;-86
2022/01/01 05:14:18;;;;;;;47.17;17.42;;;;;;;11.07;90.54;102275.75;10443846;28;20052;-86
2022/01/01 05:19:20;;;;;;;48.13;18.05;;;;;;;11.05;91.27;102272.25;10472721;28;20044;-85
2022/01/01 05:24:22;;;;;;;41.30;17.67;;;;;;;11.09;91.13;102257.78;10440851;28;20484;-87
2022/01/01 05:29:24;;;;;;;36.17;16.48;;;;;;;11.07;91.10;102268.00;10461393;28;20044;-87
2022/01/01 05:34:26;;;;;;;39.53;17.15;;;;;;;11.04;91.38;102260.16;10467528;28;20042;-86
2022/01/01 05:39:28;;;;;;;42.20;16.98;;;;;;;11.06;91.30;102258.50;10455758;28;20561;-87
2022/01/01 05:44:30;;;;;;;43.63;17.90;;;;;;;11.08;91.18;102261.19;10468344;28;20403;-86
2022/01/01 05:49:32;;;;;;;42.22;16.50;;;;;;;11.04;91.39;102257.59;10484821;28;20067;-88
2022/01/01 05:54:34;;;;;;;34.63;14.52;;;;;;;11.03;91.62;102252.31;10541200;28;20094;-87
2022/01/01 05:59:40;;;;;;;41.17;14.85;;;;;;;11.03;92.01;102262.66;10468016;28;20125;-87
2022/01/01 06:04:42;;;;;;;35.03;14.98;;;;;;;11.02;91.71;102272.09;10455581;28;20049;-88
2022/01/01 06:09:45;;;;;;;33.10;12.73;;;;;;;11.04;91.93;102275.63;10482849;28;20135;-87
2022/01/01 06:14:47;;;;;;;37.22;12.90;;;;;;;11.08;91.44;102271.50;10534994;28;20024;-87
2022/01/01 06:19:49;;;;;;;38.90;12.57;;;;;;;11.09;91.49;102268.97;10437607;28;20095;-88
2022/01/01 06:24:51;;;;;;;36.92;13.80;;;;;;;11.08;91.84;102256.88;10438939;28;20127;-88
2022/01/01 06:29:53;;;;;;;32.17;12.20;;;;;;;11.13;91.43;102253.66;10469916;28;20040;-87
2022/01/01 06:34:55;;;;;;;31.75;10.75;;;;;;;11.11;91.37;102272.53;10479696;28;20041;-87
2022/01/01 06:40:02;;;;;;;26.88;10.27;;;;;;;11.15;91.26;102288.13;10452143;28;20075;-86
2022/01/01 06:45:04;;;;;;;28.02;10.43;;;;;;;11.13;91.35;102274.28;10455649;28;20076;-85
2022/01/01 06:50:07;;;;;;;32.25;12.05;;;;;;;11.18;90.87;102277.94;10424984;28;20041;-85
2022/01/01 06:55:11;;;;;;;29.80;11.40;;;;;;;11.24;90.81;102275.66;10436915;28;20044;-85
2022/01/01 07:00:14;;;;;;;23.08;10.73;;;;;;;11.24;90.56;102273.06;10436757;28;20076;-89
2022/01/01 07:05:16;;;;;;;24.23;10.45;;;;;;;11.25;90.59;102264.53;10471605;28;20093;-90
2022/01/01 07:10:18;;;;;;;19.30;9.25;;;;;;;11.26;90.08;102271.44;10446064;28;20098;-90
2022/01/01 07:15:20;;;;;;;29.10;11.52;;;;;;;11.30;89.81;102290.53;10466287;28;20052;-87
2022/01/01 07:20:21;;;;;;;20.85;10.40;;;;;;;11.31;89.87;102295.75;10477509;28;20048;-89
2022/01/01 07:25:23;;;;;;;23.13;9.60;;;;;;;11.32;89.64;102294.94;10462511;28;20050;-89
2022/01/01 07:30:25;;;;;;;24.50;9.77;;;;;;;11.34;89.32;102293.31;10504848;28;20458;-88
2022/01/01 07:35:55;;;;;;;22.92;8.88;;;;;;;11.36;89.13;102299.41;10462206;28;20143;-89
2022/01/01 07:40:58;;;;;;;23.93;8.40;;;;;;;11.32;88.99;102313.00;10504709;28;20508;-91
2022/01/01 07:46:02;;;;;;;17.67;8.80;;;;;;;11.34;88.70;102321.69;10492891;28;20084;-90
2022/01/01 07:51:05;;;;;;;22.05;9.43;;;;;;;11.30;89.04;102324.06;10487583;28;20475;-88
2022/01/01 07:56:08;;;;;;;20.42;8.48;;;;;;;11.14;89.28;102314.72;10497385;28;20188;-88
2022/01/01 08:01:10;;;;;;;24.02;8.50;;;;;;;11.10;89.07;102322.34;10471861;28;20496;-89
2022/01/01 08:06:14;;;;;;;26.20;10.40;;;;;;;11.14;89.09;102322.47;10471353;28;20114;-88
2022/01/01 08:11:20;;;;;;;22.35;8.68;;;;;;;11.21;88.70;102311.59;10465685;28;20132;-89
2022/01/01 08:16:26;;;;;;;20.50;9.23;;;;;;;11.21;88.62;102325.41;10467472;28;20076;-87
2022/01/01 08:21:28;;;;;;;22.10;9.20;;;;;;;11.22;88.81;102326.28;10522397;28;20037;-86
2022/01/01 08:26:30;;;;;;;19.67;9.10;;;;;;;11.27;87.89;102336.00;10507316;28;20139;-86
2022/01/01 08:31:31;;;;;;;25.45;9.82;;;;;;;11.17;88.08;102332.94;10453882;28;20095;-87
2022/01/01 08:36:33;;;;;;;21.60;8.95;;;;;;;11.05;88.14;102336.72;10481911;28;20036;-87
2022/01/01 08:41:35;;;;;;;19.98;8.60;;;;;;;11.07;88.46;102322.19;10466335;28;20503;-88
2022/01/01 08:46:37;;;;;;;18.33;7.78;;;;;;;11.07;88.36;102323.88;10484207;28;20071;-89
2022/01/01 08:51:42;;;;;;;21.00;8.55;;;;;;;11.08;87.68;102329.09;10498337;28;20088;-88
2022/01/01 08:56:44;;;;;;;29.95;10.15;;;;;;;11.07;87.85;102322.19;10503810;28;20560;-86
2022/01/01 09:01:50;;;;;;;18.88;7.30;;;;;;;11.09;87.62;102320.56;10493801;28;20052;-88
2022/01/01 09:06:53;;;;;;;19.77;7.65;;;;;;;11.07;87.67;102327.34;10523295;28;20040;-91
2022/01/01 09:11:57;;;;;;;17.35;8.77;;;;;;;11.15;87.44;102319.06;10489286;28;20415;-86
2022/01/01 09:16:58;;;;;;;19.02;8.60;;;;;;;11.21;87.00;102321.94;10473986;28;20504;-87
2022/01/01 09:22:00;;;;;;;17.92;7.30;;;;;;;11.28;86.43;102321.44;10463131;28;20049;-84
2022/01/01 09:27:03;;;;;;;18.80;6.95;;;;;;;11.46;86.33;102328.22;10491337;28;20048;-87
2022/01/01 09:32:06;;;;;;;17.63;7.68;;;;;;;11.53;85.59;102338.00;10453542;28;20041;-89
2022/01/01 09:37:08;;;;;;;15.95;6.70;;;;;;;11.58;85.47;102331.34;10473405;28;20074;-82
2022/01/01 09:42:11;;;;;;;15.02;6.43;;;;;;;11.65;84.54;102328.25;10466371;28;20036;-86
2022/01/01 09:47:13;;;;;;;13.77;5.43;;;;;;;11.73;85.07;102329.44;10461165;28;20402;-85
2022/01/01 09:52:16;;;;;;;14.00;6.22;;;;;;;11.74;84.49;102328.63;10469671;28;20045;-82
2022/01/01 09:57:18;;;;;;;17.52;5.30;;;;;;;11.82;84.03;102322.91;10444010;28;20444;-82
2022/01/01 10:02:20;;;;;;;17.00;5.50;;;;;;;11.83;83.75;102317.84;10462897;28;20041;-82
2022/01/01 10:07:28;;;;;;;14.40;4.80;;;;;;;11.82;83.96;102294.50;10463845;28;20452;-82
2022/01/01 10:12:43;;;;;;;13.60;4.97;;;;;;;11.85;84.10;102290.34;10458204;28;20046;-83
2022/01/01 10:17:47;;;;;;;15.68;5.97;;;;;;;11.91;83.67;102289.75;10458895;28;20052;-87
2022/01/01 10:22:50;;;;;;;12.75;4.85;;;;;;;12.00;83.55;102285.00;10481210;28;20082;-85
2022/01/01 10:27:59;;;;;;;16.50;5.45;;;;;;;12.08;82.90;102282.75;10471625;28;20048;-84
2022/01/01 10:33:12;;;;;;;12.15;4.88;;;;;;;12.12;83.10;102281.16;10458948;28;20179;-87
2022/01/01 10:38:26;;;;;;;12.52;5.47;;;;;;;12.11;82.85;102269.97;10474825;28;20068;-85
2022/01/01 10:43:38;;;;;;;13.40;4.50;;;;;;;12.10;83.17;102263.03;10449719;28;20048;-86
2022/01/01 10:48:54;;;;;;;14.02;4.78;;;;;;;12.15;82.75;102245.13;10461617;28;20037;-88
2022/01/01 10:54:05;;;;;;;14.10;5.43;;;;;;;12.26;83.21;102251.59;10463897;28;20106;-84
2022/01/01 10:59:13;;;;;;;11.15;5.18;;;;;;;12.35;83.03;102231.31;10466096;28;20119;-82
2022/01/01 11:04:15;;;;;;;16.48;5.20;;;;;;;12.36;82.71;102225.31;10462919;28;20147;-84
2022/01/01 11:09:17;;;;;;;7.78;4.15;;;;;;;12.42;82.56;102227.28;10483120;28;20447;-88
2022/01/01 11:14:23;;;;;;;14.45;6.32;;;;;;;12.58;82.77;102233.91;10478635;28;20461;-85
2022/01/01 11:19:26;;;;;;;13.95;7.20;;;;;;;12.46;82.72;102233.44;10467878;28;20412;-84
2022/01/01 11:24:31;;;;;;;13.27;6.85;;;;;;;12.45;82.21;102226.50;10446658;28;20040;-86
2022/01/01 11:29:34;;;;;;;11.77;5.15;;;;;;;12.57;82.90;102232.16;10445386;28;20083;-85
2022/01/01 11:34:38;;;;;;;14.68;4.95;;;;;;;12.70;82.41;102224.03;10464436;28;20139;-84
2022/01/01 11:39:40;;;;;;;10.88;5.18;;;;;;;12.66;82.36;102217.00;10456442;28;20045;-85
2022/01/01 11:44:50;;;;;;;13.25;5.60;;;;;;;12.65;82.37;102214.38;10486056;28;20037;-85
2022/01/01 11:49:52;;;;;;;11.18;5.32;;;;;;;12.64;81.49;102210.88;10496693;28;20045;-84
2022/01/01 11:55:02;;;;;;;9.32;4.97;;;;;;;12.65;81.76;102220.41;10501368;28;20045;-85
2022/01/01 12:00:13;;;;;;;11.38;5.72;;;;;;;12.69;82.36;102216.25;10453238;28;20041;-84
2022/01/01 12:05:27;;;;;;;9.80;4.88;;;;;;;12.70;82.45;102203.34;10470035;28;20072;-84
2022/01/01 12:10:36;;;;;;;14.88;5.68;;;;;;;12.68;82.00;102205.03;10488639;28;20041;-88
2022/01/01 12:15:47;;;;;;;13.02;5.05;;;;;;;12.65;81.97;102210.06;10464923;28;20045;-87
2022/01/01 12:20:56;;;;;;;13.75;5.15;;;;;;;12.59;82.53;102204.66;10478158;28;20051;-84
2022/01/01 12:26:11;;;;;;;10.38;5.03;;;;;;;12.66;82.84;102196.31;10471522;28;20067;-83
2022/01/01 12:31:22;;;;;;;10.77;5.25;;;;;;;12.76;82.12;102186.34;10477712;28;20041;-84
2022/01/01 12:36:31;;;;;;;10.98;4.88;;;;;;;12.69;82.79;102186.09;10470133;28;20058;-84
2022/01/01 12:41:44;;;;;;;11.70;5.20;;;;;;;12.75;82.69;102189.75;10476306;28;20439;-85
2022/01/01 12:47:11;;;;;;;10.15;5.22;;;;;;;12.76;82.46;102201.84;10470222;28;20143;-85
2022/01/01 12:52:22;;;;;;;10.85;5.35;;;;;;;12.77;82.31;102194.13;10465054;28;20040;-88
2022/01/01 12:58:02;;;;;;;10.60;4.82;;;;;;;12.85;81.91;102187.56;10473430;28;20052;-86
2022/01/01 13:03:06;;;;;;;10.55;4.95;;;;;;;13.05;81.80;102189.09;10496582;28;20045;-85
2022/01/01 13:08:09;;;;;;;12.80;5.50;;;;;;;13.27;81.38;102189.06;10481332;28;20135;-84
2022/01/01 13:13:13;;;;;;;9.73;4.63;;;;;;;13.01;81.75;102162.25;10495877;28;20047;-84
2022/01/01 13:18:16;;;;;;;8.48;4.40;;;;;;;12.88;81.58;102137.63;10493136;28;20059;-86
2022/01/01 13:23:18;;;;;;;9.80;5.20;;;;;;;12.79;82.50;102134.72;10477708;28;20047;-85
2022/01/01 13:28:29;;;;;;;12.68;5.35;;;;;;;12.77;81.86;102126.03;10473509;28;20113;-87
2022/01/01 13:33:40;;;;;;;8.35;3.90;;;;;;;12.79;81.65;102142.47;10466419;28;20040;-84
2022/01/01 13:38:42;;;;;;;8.65;4.90;;;;;;;12.79;81.11;102142.47;10475961;28;20060;-85
2022/01/01 13:44:26;;;;;;;8.70;4.15;;;;;;;12.68;82.00;102131.72;10476308;28;20504;-86
2022/01/01 13:49:40;;;;;;;10.68;4.45;;;;;;;12.65;82.33;102145.44;10472547;28;20055;-84
2022/01/01 13:54:44;;;;;;;11.73;4.70;;;;;;;12.61;82.30;102153.00;10445787;28;20049;-85
2022/01/01 13:59:53;;;;;;;7.83;4.10;;;;;;;12.55;82.97;102151.06;10496477;28;20475;-85
2022/01/01 14:04:57;;;;;;;7.05;4.10;;;;;;;12.52;82.84;102157.00;10478983;28;20051;-84
2022/01/01 14:10:06;;;;;;;9.13;4.57;;;;;;;12.53;82.19;102151.00;10477007;28;20407;-84
2022/01/01 14:15:20;;;;;;;13.13;4.63;;;;;;;12.43;83.30;102145.44;10491174;28;20424;-85
2022/01/01 14:20:24;;;;;;;8.98;4.85;;;;;;;12.30;84.03;102155.31;10465015;28;20139;-84
2022/01/01 14:25:29;;;;;;;13.13;5.10;;;;;;;12.32;83.69;102138.16;10463620;28;20507;-86
2022/01/01 14:30:32;;;;;;;9.63;4.43;;;;;;;12.26;84.00;102137.91;10467490;28;20099;-85
2022/01/01 14:35:35;;;;;;;8.18;3.65;;;;;;;12.28;83.36;102138.88;10487661;28;20048;-84
2022/01/01 14:40:38;;;;;;;10.70;4.07;;;;;;;12.15;84.05;102144.38;10482513;28;20068;-84
2022/01/01 14:45:43;;;;;;;11.88;4.55;;;;;;;12.30;83.09;102136.31;10464487;28;20044;-85
2022/01/01 14:51:06;;;;;;;6.85;3.78;;;;;;;12.18;83.76;102144.47;10483840;28;20045;-83
2022/01/01 14:56:29;;;;;;;7.40;3.40;;;;;;;12.17;83.75;102158.25;10492279;28;20484;-84
2022/01/01 15:01:32;;;;;;;10.45;3.80;;;;;;;12.11;83.71;102148.53;10440336;28;20052;-85
2022/01/01 15:07:02;;;;;;;7.15;3.50;;;;;;;12.06;83.80;102140.59;10470625;28;20060;-85
2022/01/01 15:12:06;;;;;;;8.20;3.90;;;;;;;12.05;84.06;102143.16;10505640;28;20510;-85
2022/01/01 15:17:08;;;;;;;9.93;3.72;;;;;;;12.03;84.06;102142.19;10440519;28;20040;-84
2022/01/01 15:22:53;;;;;;;7.80;3.92;;;;;;;11.94;84.37;102114.28;10463005;28;20045;-87
2022/01/01 15:27:58;;;;;;;7.70;3.42;;;;;;;11.91;84.09;102093.47;10476135;28;20036;-85
2022/01/01 15:38:58;;;;;;;11.85;5.90;;;;;;;11.77;84.67;102099.78;10485534;28;20070;-84
2022/01/01 15:44:01;;;;;;;11.70;4.50;;;;;;;11.69;84.95;102113.28;10472336;28;20051;-84
2022/01/01 15:49:02;;;;;;;8.88;3.70;;;;;;;11.81;84.62;102099.97;10467648;28;20060;-85
2022/01/01 15:54:08;;;;;;;8.50;4.07;;;;;;;11.74;85.14;102092.81;10468354;28;20052;-84
2022/01/01 15:59:16;;;;;;;9.57;3.70;;;;;;;11.62;85.24;102100.94;10470439;28;20044;-84
2022/01/01 16:04:45;;;;;;;14.30;5.10;;;;;;;11.63;85.51;102087.22;10468071;28;20045;-87
2022/01/01 16:09:49;;;;;;;10.35;5.68;;;;;;;11.59;85.44;102090.47;10474726;28;20049;-83
2022/01/01 16:14:57;;;;;;;10.43;5.28;;;;;;;11.49;85.72;102083.19;10468315;28;20139;-84
2022/01/01 16:19:59;;;;;;;8.40;5.10;;;;;;;11.50;86.01;102057.44;10475767;28;20053;-84
2022/01/01 16:25:04;;;;;;;12.45;5.55;;;;;;;11.40;86.35;102043.28;10482117;28;20499;-86
2022/01/01 16:30:08;;;;;;;9.73;5.40;;;;;;;11.37;86.47;102045.72;10471502;28;20276;-83
2022/01/01 16:35:11;;;;;;;15.48;6.60;;;;;;;11.58;85.64;102024.19;10492244;28;20430;-83
2022/01/01 16:40:13;;;;;;;14.57;7.78;;;;;;;11.53;85.66;102017.97;10487440;28;20144;-83
2022/01/01 16:45:18;;;;;;;12.52;6.18;;;;;;;11.47;86.06;102013.44;10491146;28;20041;-87
2022/01/01 16:50:23;;;;;;;12.07;6.53;;;;;;;11.39;86.55;102010.56;10477709;28;20098;-83
2022/01/01 16:55:39;;;;;;;13.18;6.20;;;;;;;11.46;85.95;102005.63;10493407;28;20040;-86
2022/01/01 17:00:58;;;;;;;8.25;4.75;;;;;;;11.41;86.30;102003.78;10491689;28;20055;-85
2022/01/01 17:06:03;;;;;;;8.20;4.60;;;;;;;11.51;85.52;102015.34;10488665;28;20476;-84
2022/01/01 17:11:06;;;;;;;13.73;6.95;;;;;;;11.57;85.37;102006.97;10483887;28;20491;-87
2022/01/01 17:16:15;;;;;;;8.57;4.63;;;;;;;11.64;84.93;101993.47;10472892;28;20495;-83
2022/01/01 17:21:19;;;;;;;22.10;10.23;;;;;;;11.49;85.46;101982.53;10505602;28;20043;-86
2022/01/01 17:26:23;;;;;;;17.30;6.57;;;;;;;11.52;85.14;101985.22;10467040;28;20040;-86
2022/01/01 17:31:30;;;;;;;7.95;4.25;;;;;;;11.55;85.14;101973.31;10471201;28;20135;-86
2022/01/01 17:41:57;;;;;;;15.55;6.38;;;;;;;11.63;84.32;101949.50;10473150;28;20381;-85
2022/01/01 17:47:01;;;;;;;10.02;4.53;;;;;;;11.61;84.30;101939.13;10481724;28;20095;-85
2022/01/01 17:52:06;;;;;;;8.48;4.50;;;;;;;11.58;84.71;101944.16;10475157;28;20044;-85
2022/01/01 17:57:09;;;;;;;9.70;4.60;;;;;;;11.49;85.24;101941.25;10490884;28;20431;-86
2022/01/01 18:02:13;;;;;;;13.40;6.35;;;;;;;11.41;85.37;101941.84;10462370;28;20045;-84
2022/01/01 18:07:23;;;;;;;8.48;3.70;;;;;;;11.43;84.92;101950.50;10476009;28;20064;-83
2022/01/01 18:12:35;;;;;;;8.43;3.88;;;;;;;11.49;84.32;101955.03;10490710;28;20492;-84
2022/01/01 18:17:45;;;;;;;8.50;4.00;;;;;;;11.46;84.45;101961.78;10478771;28;20048;-84
2022/01/01 18:22:50;;;;;;;8.18;4.93;;;;;;;11.42;84.86;101930.72;10468311;28;20044;-87
2022/01/01 18:28:01;;;;;;;9.60;5.55;;;;;;;11.35;85.12;101928.72;10497969;28;20047;-85
2022/01/01 18:33:03;;;;;;;8.73;5.13;;;;;;;11.43;84.50;101909.22;10476873;28;20048;-87
2022/01/01 18:38:05;;;;;;;9.05;4.85;;;;;;;11.30;85.19;101921.59;10460556;28;20052;-85
2022/01/01 18:43:06;;;;;;;8.18;4.80;;;;;;;11.19;85.36;101934.94;10459565;28;20053;-83
2022/01/01 18:48:11;;;;;;;6.90;4.28;;;;;;;11.30;84.99;101948.25;10468845;28;20423;-86
2022/01/01 18:53:17;;;;;;;10.40;4.40;;;;;;;11.17;85.28;101933.13;10472521;28;20408;-84
2022/01/01 18:58:23;;;;;;;9.63;4.90;;;;;;;11.11;85.69;101942.38;10456491;28;20127;-85
2022/01/01 19:03:33;;;;;;;8.07;4.45;;;;;;;11.18;85.38;101937.47;10487003;28;20518;-84
2022/01/01 19:08:37;;;;;;;9.95;4.72;;;;;;;11.13;85.60;101939.84;10485133;28;20071;-85
2022/01/01 19:13:44;;;;;;;9.32;4.32;;;;;;;11.18;85.08;101940.03;10473471;28;20407;-85
2022/01/01 19:18:49;;;;;;;11.32;4.40;;;;;;;11.05;85.58;101942.13;10492826;28;20055;-85
2022/01/01 19:23:55;;;;;;;9.30;4.50;;;;;;;11.06;85.46;101920.66;10450187;28;20099;-83
2022/01/01 19:29:02;;;;;;;9.73;4.68;;;;;;;10.95;85.97;101903.91;10475817;28;20071;-86
2022/01/01 19:34:07;;;;;;;12.63;6.97;;;;;;;10.93;86.13;101900.38;10486344;28;20060;-84
2022/01/01 19:39:10;;;;;;;6.55;4.43;;;;;;;10.95;86.19;101893.59;10493402;28;20499;-84
2022/01/01 19:44:29;;;;;;;8.07;4.85;;;;;;;10.86;86.47;101888.03;10485076;28;20054;-86
2022/01/01 19:49:46;;;;;;;8.75;4.43;;;;;;;10.91;86.01;101896.84;10474912;28;20048;-84
2022/01/01 19:54:48;;;;;;;11.88;5.07;;;;;;;10.75;86.71;101870.47;10475155;28;20048;-86
2022/01/01 19:59:49;;;;;;;9.50;5.25;;;;;;;10.72;86.90;101841.97;10476953;28;20054;-83
2022/01/01 20:04:51;;;;;;;12.30;5.07;;;;;;;10.60;86.92;101838.91;10502631;28;20037;-87
2022/01/01 20:09:53;;;;;;;8.30;4.70;;;;;;;10.68;86.65;101846.94;10481150;28;20045;-86
2022/01/01 20:14:54;;;;;;;7.35;4.88;;;;;;;10.84;85.85;101869.06;10482501;28;20045;-84
2022/01/01 20:19:56;;;;;;;8.15;4.72;;;;;;;10.81;85.70;101858.63;10473231;28;20135;-85
2022/01/01 20:24:59;;;;;;;6.95;4.53;;;;;;;10.69;86.02;101852.16;10484987;28;20040;-83
2022/01/01 20:30:02;;;;;;;9.35;5.20;;;;;;;10.67;86.07;101856.38;10503485;28;20040;-83
2022/01/01 20:35:04;;;;;;;9.00;5.20;;;;;;;10.56;86.38;101875.66;10502812;28;20044;-85
2022/01/01 20:40:07;;;;;;;9.40;5.00;;;;;;;10.52;86.05;101871.22;10507631;28;20044;-85
2022/01/01 20:45:09;;;;;;;12.23;5.35;;;;;;;10.47;86.41;101876.16;10480735;28;20041;-85
2022/01/01 20:50:15;;;;;;;9.38;5.13;;;;;;;10.40;86.27;101877.59;10456635;28;20044;-83
2022/01/01 20:55:17;;;;;;;9.07;5.10;;;;;;;10.27;86.56;101885.59;10471937;28;20045;-85
2022/01/01 21:00:23;;;;;;;6.50;4.35;;;;;;;10.28;86.68;101893.38;10491199;28;20072;-84
2022/01/01 21:05:28;;;;;;;10.80;5.25;;;;;;;10.22;86.89;101887.09;10493271;28;20152;-83
2022/01/01 21:10:34;;;;;;;10.23;5.57;;;;;;;10.02;87.51;101868.19;10495450;28;20051;-84
2022/01/01 21:15:36;;;;;;;14.32;7.35;;;;;;;10.17;87.55;101874.00;10471404;28;20045;-84
2022/01/01 21:20:38;;;;;;;9.98;6.40;;;;;;;10.16;87.26;101882.56;10486388;28;20049;-84
2022/01/01 21:25:56;;;;;;;11.05;6.15;;;;;;;10.16;86.96;101893.72;10506843;28;20056;-84
2022/01/01 21:30:58;;;;;;;12.93;6.32;;;;;;;10.18;87.10;101882.59;10467279;28;20045;-84
2022/01/01 21:36:00;;;;;;;10.00;5.60;;;;;;;10.26;86.38;101866.69;10466544;28;20044;-83
2022/01/01 21:41:05;;;;;;;14.52;6.43;;;;;;;10.28;86.45;101828.97;10472481;28;20040;-84
2022/01/01 21:46:07;;;;;;;10.93;5.80;;;;;;;10.36;86.45;101816.44;10486850;28;20056;-84
2022/01/01 21:51:09;;;;;;;7.88;4.82;;;;;;;10.30;86.10;101787.84;10474382;28;20144;-87
2022/01/01 21:56:12;;;;;;;10.13;5.22;;;;;;;10.45;85.56;101787.63;10484240;28;20049;-84
2022/01/01 22:01:14;;;;;;;9.98;5.60;;;;;;;10.43;85.62;101785.00;10492223;28;20112;-84
2022/01/01 22:06:16;;;;;;;8.90;5.10;;;;;;;10.50;84.92;101786.09;10485336;28;20059;-84
2022/01/01 22:11:18;;;;;;;10.27;5.78;;;;;;;10.57;84.70;101782.09;10476388;28;20119;-84
2022/01/01 22:16:19;;;;;;;8.35;4.97;;;;;;;10.52;84.80;101763.00;10473280;28;20041;-84
2022/01/01 22:21:21;;;;;;;10.02;6.20;;;;;;;10.62;84.34;101780.56;10464305;28;20048;-85
2022/01/01 22:26:23;;;;;;;11.02;5.68;;;;;;;10.59;84.46;101770.16;10470212;28;20045;-84
2022/01/01 22:31:25;;;;;;;8.63;5.38;;;;;;;10.70;83.95;101774.00;10452914;28;20049;-85
2022/01/01 22:36:26;;;;;;;9.63;4.93;;;;;;;10.66;83.96;101804.75;10481645;28;20146;-85
2022/01/01 22:41:29;;;;;;;9.13;5.60;;;;;;;10.62;84.14;101798.59;10454802;28;20495;-84
2022/01/01 22:46:31;;;;;;;8.88;5.43;;;;;;;10.62;83.90;101801.19;10446580;28;20043;-83
2022/01/01 22:51:33;;;;;;;10.60;5.07;;;;;;;10.56;84.32;101807.00;10482929;28;20055;-84
2022/01/01 22:56:35;;;;;;;11.23;5.63;;;;;;;10.67;83.57;101804.84;10479058;28;20143;-84
2022/01/01 23:01:37;;;;;;;8.25;5.65;;;;;;;10.57;84.15;101798.44;10483183;28;20052;-85
2022/01/01 23:06:40;;;;;;;9.90;5.10;;;;;;;10.53;84.27;101777.66;10466996;28;20051;-84
2022/01/01 23:11:43;;;;;;;10.82;5.43;;;;;;;10.45;84.75;101791.09;10484475;28;20052;-83
2022/01/01 23:16:45;;;;;;;10.20;5.63;;;;;;;10.44;84.55;101791.00;10470650;28;20048;-84